sensor_id;sensor_type;location;lat;lon;timestamp;P1;durP1;ratioP1;P2;durP2;ratioP2
63959;SDS011;50136;51.374;0.096;2023-03-31T00:08:14;13.45;;;4.60;;
63959;SDS011;50136;51.374;0.096;2023-03-31T00:18:16;18.17;;;3.38;;
63959;SDS011;50136;51.374;0.096;2023-03-31T00:28:19;11.55;;;2.33;;
63959;SDS011;50136;51.374;0.096;2023-03-31T00:38:21;15.85;;;3.83;;
63959;SDS011;50136;51.374;0.096;2023-03-31T00:48:24;18.13;;;3.80;;
63959;SDS011;50136;51.374;0.096;2023-03-31T00:58:27;14.52;;;4.45;;
63959;SDS011;50136;51.374;0.096;2023-03-31T01:08:30;13.38;;;2.60;;
63959;SDS011;50136;51.374;0.096;2023-03-31T01:18:33;12.57;;;2.80;;
63959;SDS011;50136;51.374;0.096;2023-03-31T01:28:38;12.13;;;2.47;;
63959;SDS011;50136;51.374;0.096;2023-03-31T01:38:51;4.95;;;1.90;;
63959;SDS011;50136;51.374;0.096;2023-03-31T01:49:16;10.90;;;2.60;;
63959;SDS011;50136;51.374;0.096;2023-03-31T01:59:24;16.35;;;3.40;;
63959;SDS011;50136;51.374;0.096;2023-03-31T02:09:32;16.98;;;2.90;;
63959;SDS011;50136;51.374;0.096;2023-03-31T02:19:37;17.45;;;3.65;;
63959;SDS011;50136;51.374;0.096;2023-03-31T02:29:43;15.55;;;4.15;;
63959;SDS011;50136;51.374;0.096;2023-03-31T02:39:46;20.45;;;4.13;;
63959;SDS011;50136;51.374;0.096;2023-03-31T02:49:52;17.35;;;4.20;;
63959;SDS011;50136;51.374;0.096;2023-03-31T03:00:02;27.17;;;6.72;;
63959;SDS011;50136;51.374;0.096;2023-03-31T03:10:11;42.10;;;6.70;;
63959;SDS011;50136;51.374;0.096;2023-03-31T03:20:19;44.80;;;7.63;;
63959;SDS011;50136;51.374;0.096;2023-03-31T03:30:23;33.42;;;5.63;;
63959;SDS011;50136;51.374;0.096;2023-03-31T03:40:25;26.95;;;6.25;;
63959;SDS011;50136;51.374;0.096;2023-03-31T03:50:28;44.05;;;6.35;;
63959;SDS011;50136;51.374;0.096;2023-03-31T04:00:30;32.85;;;6.47;;
63959;SDS011;50136;51.374;0.096;2023-03-31T04:10:34;24.45;;;5.80;;
63959;SDS011;50136;51.374;0.096;2023-03-31T04:20:36;22.42;;;4.80;;
63959;SDS011;50136;51.374;0.096;2023-03-31T04:30:39;26.60;;;6.15;;
63959;SDS011;50136;51.374;0.096;2023-03-31T04:40:41;21.67;;;4.65;;
63959;SDS011;50136;51.374;0.096;2023-03-31T04:50:46;17.42;;;4.72;;
63959;SDS011;50136;51.374;0.096;2023-03-31T05:00:48;16.63;;;3.40;;
63959;SDS011;50136;51.374;0.096;2023-03-31T05:10:51;18.83;;;3.15;;
63959;SDS011;50136;51.374;0.096;2023-03-31T05:20:55;10.98;;;4.00;;
63959;SDS011;50136;51.374;0.096;2023-03-31T05:30:59;8.55;;;2.17;;
63959;SDS011;50136;51.374;0.096;2023-03-31T05:41:02;19.80;;;4.63;;
63959;SDS011;50136;51.374;0.096;2023-03-31T05:51:05;27.85;;;5.55;;
63959;SDS011;50136;51.374;0.096;2023-03-31T06:01:08;25.83;;;5.13;;
63959;SDS011;50136;51.374;0.096;2023-03-31T06:11:13;20.95;;;4.13;;
63959;SDS011;50136;51.374;0.096;2023-03-31T06:21:17;18.35;;;3.72;;
63959;SDS011;50136;51.374;0.096;2023-03-31T06:31:21;20.33;;;4.90;;
63959;SDS011;50136;51.374;0.096;2023-03-31T06:41:24;14.88;;;3.35;;
63959;SDS011;50136;51.374;0.096;2023-03-31T06:51:28;19.15;;;4.03;;
63959;SDS011;50136;51.374;0.096;2023-03-31T07:01:32;29.88;;;7.82;;
63959;SDS011;50136;51.374;0.096;2023-03-31T07:11:36;22.60;;;4.80;;
63959;SDS011;50136;51.374;0.096;2023-03-31T07:21:38;21.73;;;6.38;;
63959;SDS011;50136;51.374;0.096;2023-03-31T07:31:41;37.88;;;6.97;;
63959;SDS011;50136;51.374;0.096;2023-03-31T07:41:43;18.52;;;4.65;;
63959;SDS011;50136;51.374;0.096;2023-03-31T07:51:47;36.60;;;5.90;;
63959;SDS011;50136;51.374;0.096;2023-03-31T08:01:49;25.40;;;5.03;;
63959;SDS011;50136;51.374;0.096;2023-03-31T08:11:52;31.42;;;6.20;;
63959;SDS011;50136;51.374;0.096;2023-03-31T08:21:54;37.47;;;6.63;;
63959;SDS011;50136;51.374;0.096;2023-03-31T08:31:57;27.55;;;5.90;;
63959;SDS011;50136;51.374;0.096;2023-03-31T08:42:00;30.80;;;5.60;;
63959;SDS011;50136;51.374;0.096;2023-03-31T08:52:13;24.15;;;4.97;;
63959;SDS011;50136;51.374;0.096;2023-03-31T09:02:20;26.48;;;4.65;;
63959;SDS011;50136;51.374;0.096;2023-03-31T09:12:33;32.30;;;7.07;;
63959;SDS011;50136;51.374;0.096;2023-03-31T09:22:40;25.70;;;4.97;;
63959;SDS011;50136;51.374;0.096;2023-03-31T09:32:47;19.73;;;5.07;;
63959;SDS011;50136;51.374;0.096;2023-03-31T09:42:53;28.00;;;5.88;;
63959;SDS011;50136;51.374;0.096;2023-03-31T09:53:01;21.52;;;5.28;;
63959;SDS011;50136;51.374;0.096;2023-03-31T10:03:06;20.38;;;4.90;;
63959;SDS011;50136;51.374;0.096;2023-03-31T10:13:09;23.02;;;4.70;;
63959;SDS011;50136;51.374;0.096;2023-03-31T10:23:17;27.33;;;6.00;;
63959;SDS011;50136;51.374;0.096;2023-03-31T10:33:26;26.15;;;5.95;;
63959;SDS011;50136;51.374;0.096;2023-03-31T10:43:33;19.58;;;5.30;;
63959;SDS011;50136;51.374;0.096;2023-03-31T10:53:44;18.73;;;5.38;;
63959;SDS011;50136;51.374;0.096;2023-03-31T11:03:56;14.25;;;3.80;;
63959;SDS011;50136;51.374;0.096;2023-03-31T11:14:23;12.98;;;3.85;;
63959;SDS011;50136;51.374;0.096;2023-03-31T11:24:41;13.50;;;3.17;;
63959;SDS011;50136;51.374;0.096;2023-03-31T11:34:58;9.30;;;2.55;;
63959;SDS011;50136;51.374;0.096;2023-03-31T11:45:11;8.13;;;2.40;;
63959;SDS011;50136;51.374;0.096;2023-03-31T11:55:18;5.72;;;1.83;;
63959;SDS011;50136;51.374;0.096;2023-03-31T12:15:53;2.17;;;1.02;;
63959;SDS011;50136;51.374;0.096;2023-03-31T12:37:12;3.40;;;1.35;;
63959;SDS011;50136;51.374;0.096;2023-03-31T12:47:43;1.40;;;0.80;;
63959;SDS011;50136;51.374;0.096;2023-03-31T13:08:51;2.50;;;1.00;;
63959;SDS011;50136;51.374;0.096;2023-03-31T13:18:55;3.22;;;1.10;;
63959;SDS011;50136;51.374;0.096;2023-03-31T13:29:17;3.58;;;0.98;;
63959;SDS011;50136;51.374;0.096;2023-03-31T13:39:42;2.50;;;1.25;;
63959;SDS011;50136;51.374;0.096;2023-03-31T13:50:28;1.38;;;0.82;;
63959;SDS011;50136;51.374;0.096;2023-03-31T14:00:43;5.40;;;2.17;;
63959;SDS011;50136;51.374;0.096;2023-03-31T14:10:54;7.65;;;2.05;;
63959;SDS011;50136;51.374;0.096;2023-03-31T14:21:18;2.70;;;0.80;;
63959;SDS011;50136;51.374;0.096;2023-03-31T14:31:27;2.42;;;0.95;;
63959;SDS011;50136;51.374;0.096;2023-03-31T14:41:32;5.80;;;0.73;;
63959;SDS011;50136;51.374;0.096;2023-03-31T14:51:35;2.28;;;0.70;;
63959;SDS011;50136;51.374;0.096;2023-03-31T15:01:37;0.80;;;0.55;;
63959;SDS011;50136;51.374;0.096;2023-03-31T15:11:41;9.65;;;5.72;;
63959;SDS011;50136;51.374;0.096;2023-03-31T15:21:43;2.67;;;1.02;;
63959;SDS011;50136;51.374;0.096;2023-03-31T15:31:47;2.53;;;0.80;;
63959;SDS011;50136;51.374;0.096;2023-03-31T15:41:51;2.70;;;0.73;;
63959;SDS011;50136;51.374;0.096;2023-03-31T16:02:23;4.65;;;0.90;;
63959;SDS011;50136;51.374;0.096;2023-03-31T16:12:29;2.30;;;0.75;;
63959;SDS011;50136;51.374;0.096;2023-03-31T16:22:35;0.93;;;0.50;;
63959;SDS011;50136;51.374;0.096;2023-03-31T16:43:52;1.00;;;0.50;;
63959;SDS011;50136;51.374;0.096;2023-03-31T16:53:54;1.60;;;0.57;;
63959;SDS011;50136;51.374;0.096;2023-03-31T17:04:14;2.00;;;0.75;;
63959;SDS011;50136;51.374;0.096;2023-03-31T17:14:44;1.60;;;0.80;;
63959;SDS011;50136;51.374;0.096;2023-03-31T17:24:48;1.60;;;0.70;;
63959;SDS011;50136;51.374;0.096;2023-03-31T17:34:50;2.60;;;1.10;;
63959;SDS011;50136;51.374;0.096;2023-03-31T17:44:53;1.35;;;0.90;;
63959;SDS011;50136;51.374;0.096;2023-03-31T17:54:55;2.83;;;1.23;;
63959;SDS011;50136;51.374;0.096;2023-03-31T18:04:59;2.80;;;0.90;;
63959;SDS011;50136;51.374;0.096;2023-03-31T18:15:57;4.80;;;2.53;;
63959;SDS011;50136;51.374;0.096;2023-03-31T18:25:56;3.35;;;1.95;;
63959;SDS011;50136;51.374;0.096;2023-03-31T18:35:58;2.00;;;1.20;;
63959;SDS011;50136;51.374;0.096;2023-03-31T18:46:02;3.30;;;1.50;;
63959;SDS011;50136;51.374;0.096;2023-03-31T18:56:04;5.50;;;2.30;;
63959;SDS011;50136;51.374;0.096;2023-03-31T19:06:08;6.38;;;2.70;;
63959;SDS011;50136;51.374;0.096;2023-03-31T19:16:11;4.35;;;1.30;;
63959;SDS011;50136;51.374;0.096;2023-03-31T19:26:15;5.38;;;1.40;;
63959;SDS011;50136;51.374;0.096;2023-03-31T19:36:18;2.95;;;1.20;;
63959;SDS011;50136;51.374;0.096;2023-03-31T19:46:22;2.80;;;1.38;;
63959;SDS011;50136;51.374;0.096;2023-03-31T19:56:24;4.20;;;1.40;;
63959;SDS011;50136;51.374;0.096;2023-03-31T20:06:28;4.72;;;2.70;;
63959;SDS011;50136;51.374;0.096;2023-03-31T20:16:31;9.68;;;4.72;;
63959;SDS011;50136;51.374;0.096;2023-03-31T20:26:34;4.20;;;1.85;;
63959;SDS011;50136;51.374;0.096;2023-03-31T20:36:39;4.05;;;2.15;;
63959;SDS011;50136;51.374;0.096;2023-03-31T20:46:45;5.20;;;2.38;;
63959;SDS011;50136;51.374;0.096;2023-03-31T20:56:54;2.80;;;2.30;;
63959;SDS011;50136;51.374;0.096;2023-03-31T21:07:44;5.00;;;2.25;;
63959;SDS011;50136;51.374;0.096;2023-03-31T21:17:46;4.07;;;2.33;;
63959;SDS011;50136;51.374;0.096;2023-03-31T21:27:49;3.08;;;2.20;;
63959;SDS011;50136;51.374;0.096;2023-03-31T21:37:51;3.72;;;2.33;;
63959;SDS011;50136;51.374;0.096;2023-03-31T21:47:55;4.72;;;2.78;;
63959;SDS011;50136;51.374;0.096;2023-03-31T21:57:57;8.07;;;5.35;;
63959;SDS011;50136;51.374;0.096;2023-03-31T22:08:01;4.53;;;2.38;;
63959;SDS011;50136;51.374;0.096;2023-03-31T22:18:03;6.10;;;3.08;;
63959;SDS011;50136;51.374;0.096;2023-03-31T22:28:06;9.60;;;4.75;;
63959;SDS011;50136;51.374;0.096;2023-03-31T22:38:10;11.07;;;6.15;;
63959;SDS011;50136;51.374;0.096;2023-03-31T22:48:14;10.93;;;7.70;;
63959;SDS011;50136;51.374;0.096;2023-03-31T22:58:16;9.52;;;7.38;;
63959;SDS011;50136;51.374;0.096;2023-03-31T23:08:20;14.05;;;7.38;;
63959;SDS011;50136;51.374;0.096;2023-03-31T23:18:22;14.63;;;9.05;;
63959;SDS011;50136;51.374;0.096;2023-03-31T23:28:25;14.85;;;10.05;;
63959;SDS011;50136;51.374;0.096;2023-03-31T23:38:27;42.97;;;12.00;;
63959;SDS011;50136;51.374;0.096;2023-03-31T23:48:31;12.90;;;8.88;;
63959;SDS011;50136;51.374;0.096;2023-03-31T23:58:33;19.38;;;11.77;;
